sensor_id;sensor_type;location;lat;lon;timestamp;noise_LAeq;noise_LA_min;noise_LA_max;noise_LA01;noise_LA95
49215;Laerm;45943;53.148;8.204;2023-06-22T00:00:50;39.58;32.95;43.79;;
49215;Laerm;45943;53.148;8.204;2023-06-22T00:03:18;39.37;34.04;42.21;;
49215;Laerm;45943;53.148;8.204;2023-06-22T00:05:45;39.92;34.91;50.23;;
49215;Laerm;45943;53.148;8.204;2023-06-22T00:08:11;39.78;35.96;46.62;;
49215;Laerm;45943;53.148;8.204;2023-06-22T00:10:37;45.28;34.50;62.82;;
49215;Laerm;45943;53.148;8.204;2023-06-22T00:13:04;39.59;35.29;49.45;;
49215;Laerm;45943;53.148;8.204;2023-06-22T00:15:30;44.58;36.26;61.46;;
49215;Laerm;45943;53.148;8.204;2023-06-22T00:17:56;48.47;35.64;65.18;;
49215;Laerm;45943;53.148;8.204;2023-06-22T00:20:23;40.68;34.50;52.96;;
49215;Laerm;45943;53.148;8.204;2023-06-22T00:22:54;43.55;34.50;61.05;;
49215;Laerm;45943;53.148;8.204;2023-06-22T00:25:20;40.81;34.04;56.91;;
49215;Laerm;45943;53.148;8.204;2023-06-22T00:27:47;39.45;34.91;42.28;;
49215;Laerm;45943;53.148;8.204;2023-06-22T00:30:14;39.61;35.29;42.95;;
49215;Laerm;45943;53.148;8.204;2023-06-22T00:32:40;40.72;34.91;56.76;;
49215;Laerm;45943;53.148;8.204;2023-06-22T00:35:07;39.52;34.91;42.89;;
49215;Laerm;45943;53.148;8.204;2023-06-22T00:37:33;39.40;34.91;42.35;;
49215;Laerm;45943;53.148;8.204;2023-06-22T00:39:59;39.54;34.04;42.42;;
49215;Laerm;45943;53.148;8.204;2023-06-22T00:42:25;39.56;34.91;42.21;;
49215;Laerm;45943;53.148;8.204;2023-06-22T00:44:51;39.23;34.50;41.74;;
49215;Laerm;45943;53.148;8.204;2023-06-22T00:47:18;39.31;34.91;43.19;;
49215;Laerm;45943;53.148;8.204;2023-06-22T00:49:44;45.82;35.96;63.62;;
49215;Laerm;45943;53.148;8.204;2023-06-22T00:52:12;40.12;35.29;47.68;;
49215;Laerm;45943;53.148;8.204;2023-06-22T00:54:43;41.16;35.29;53.18;;
49215;Laerm;45943;53.148;8.204;2023-06-22T00:57:13;61.55;35.96;77.65;;
49215;Laerm;45943;53.148;8.204;2023-06-22T00:59:45;41.08;35.29;45.11;;
49215;Laerm;45943;53.148;8.204;2023-06-22T01:02:11;39.58;35.29;42.15;;
49215;Laerm;45943;53.148;8.204;2023-06-22T01:04:38;39.80;35.64;44.37;;
49215;Laerm;45943;53.148;8.204;2023-06-22T01:09:47;40.69;35.29;46.29;;
49215;Laerm;45943;53.148;8.204;2023-06-22T01:12:16;46.85;35.96;64.39;;
49215;Laerm;45943;53.148;8.204;2023-06-22T01:14:51;40.28;35.96;44.32;;
49215;Laerm;45943;53.148;8.204;2023-06-22T01:17:19;39.57;35.29;49.05;;
49215;Laerm;45943;53.148;8.204;2023-06-22T01:19:49;39.98;35.29;57.86;;
49215;Laerm;45943;53.148;8.204;2023-06-22T01:22:27;39.75;35.29;43.79;;
49215;Laerm;45943;53.148;8.204;2023-06-22T01:25:13;39.42;34.91;42.21;;
49215;Laerm;45943;53.148;8.204;2023-06-22T01:30:16;39.36;33.53;45.52;;
49215;Laerm;45943;53.148;8.204;2023-06-22T01:32:43;39.59;34.91;41.82;;
49215;Laerm;45943;53.148;8.204;2023-06-22T01:35:10;39.70;33.53;54.49;;
49215;Laerm;45943;53.148;8.204;2023-06-22T01:37:38;39.82;34.91;53.18;;
49215;Laerm;45943;53.148;8.204;2023-06-22T01:40:06;39.99;34.91;54.47;;
49215;Laerm;45943;53.148;8.204;2023-06-22T01:42:34;40.00;34.50;54.06;;
49215;Laerm;45943;53.148;8.204;2023-06-22T01:45:02;40.64;36.54;48.97;;
49215;Laerm;45943;53.148;8.204;2023-06-22T01:47:28;40.92;36.54;49.58;;
49215;Laerm;45943;53.148;8.204;2023-06-22T01:49:54;41.84;37.51;50.45;;
49215;Laerm;45943;53.148;8.204;2023-06-22T01:52:20;45.53;36.26;65.80;;
49215;Laerm;45943;53.148;8.204;2023-06-22T01:54:47;47.36;37.29;64.56;;
49215;Laerm;45943;53.148;8.204;2023-06-22T01:57:14;48.22;37.51;66.99;;
49215;Laerm;45943;53.148;8.204;2023-06-22T02:02:21;49.35;37.92;67.20;;
49215;Laerm;45943;53.148;8.204;2023-06-22T02:04:57;50.39;38.81;64.61;;
49215;Laerm;45943;53.148;8.204;2023-06-22T02:07:29;50.36;40.18;65.83;;
49215;Laerm;45943;53.148;8.204;2023-06-22T02:09:57;60.86;39.55;77.65;;
49215;Laerm;45943;53.148;8.204;2023-06-22T02:12:25;54.74;40.49;67.53;;
49215;Laerm;45943;53.148;8.204;2023-06-22T02:14:53;52.03;40.06;65.05;;
49215;Laerm;45943;53.148;8.204;2023-06-22T02:17:19;58.49;40.41;84.49;;
49215;Laerm;45943;53.148;8.204;2023-06-22T02:19:45;47.78;39.68;59.87;;
49215;Laerm;45943;53.148;8.204;2023-06-22T02:22:12;51.51;39.27;74.10;;
49215;Laerm;45943;53.148;8.204;2023-06-22T02:24:40;48.09;39.55;60.39;;
49215;Laerm;45943;53.148;8.204;2023-06-22T02:27:06;50.57;39.55;69.13;;
49215;Laerm;45943;53.148;8.204;2023-06-22T02:29:33;49.13;39.94;66.65;;
49215;Laerm;45943;53.148;8.204;2023-06-22T02:31:59;45.82;39.81;57.46;;
49215;Laerm;45943;53.148;8.204;2023-06-22T02:34:25;46.19;39.34;57.44;;
49215;Laerm;45943;53.148;8.204;2023-06-22T02:36:51;47.42;38.65;62.52;;
49215;Laerm;45943;53.148;8.204;2023-06-22T02:39:22;48.10;38.97;68.78;;
49215;Laerm;45943;53.148;8.204;2023-06-22T02:41:49;48.53;38.65;67.14;;
49215;Laerm;45943;53.148;8.204;2023-06-22T02:44:15;50.15;39.27;65.79;;
49215;Laerm;45943;53.148;8.204;2023-06-22T02:46:41;46.97;38.30;68.76;;
49215;Laerm;45943;53.148;8.204;2023-06-22T02:49:11;57.06;38.47;84.28;;
49215;Laerm;45943;53.148;8.204;2023-06-22T02:51:44;52.50;38.65;78.55;;
49215;Laerm;45943;53.148;8.204;2023-06-22T02:54:10;45.78;38.65;64.24;;
49215;Laerm;45943;53.148;8.204;2023-06-22T02:56:36;42.52;36.26;52.32;;
49215;Laerm;45943;53.148;8.204;2023-06-22T02:59:03;44.78;39.27;61.55;;
49215;Laerm;45943;53.148;8.204;2023-06-22T03:01:29;58.02;40.06;66.77;;
49215;Laerm;45943;53.148;8.204;2023-06-22T03:04:03;45.70;39.27;62.29;;
49215;Laerm;45943;53.148;8.204;2023-06-22T03:06:30;48.80;39.27;73.97;;
49215;Laerm;45943;53.148;8.204;2023-06-22T03:09:01;43.95;38.97;56.43;;
49215;Laerm;45943;53.148;8.204;2023-06-22T03:11:28;44.40;38.81;54.63;;
49215;Laerm;45943;53.148;8.204;2023-06-22T03:13:54;45.64;39.27;63.22;;
49215;Laerm;45943;53.148;8.204;2023-06-22T03:16:20;51.25;38.62;69.45;;
49215;Laerm;45943;53.148;8.204;2023-06-22T03:18:46;48.86;38.97;64.74;;
49215;Laerm;45943;53.148;8.204;2023-06-22T03:21:12;53.47;39.41;69.36;;
49215;Laerm;45943;53.148;8.204;2023-06-22T03:23:37;41.81;38.65;54.12;;
49215;Laerm;45943;53.148;8.204;2023-06-22T03:26:03;41.53;39.12;52.43;;
49215;Laerm;45943;53.148;8.204;2023-06-22T03:28:30;46.99;38.97;64.37;;
49215;Laerm;45943;53.148;8.204;2023-06-22T03:30:59;48.05;39.41;63.33;;
49215;Laerm;45943;53.148;8.204;2023-06-22T03:33:25;44.31;39.27;56.08;;
49215;Laerm;45943;53.148;8.204;2023-06-22T03:35:51;44.56;39.27;57.67;;
49215;Laerm;45943;53.148;8.204;2023-06-22T03:38:17;55.92;40.18;77.75;;
49215;Laerm;45943;53.148;8.204;2023-06-22T03:40:43;56.99;39.55;76.11;;
49215;Laerm;45943;53.148;8.204;2023-06-22T03:43:09;47.44;41.22;62.89;;
49215;Laerm;45943;53.148;8.204;2023-06-22T03:45:35;44.95;40.73;61.22;;
49215;Laerm;45943;53.148;8.204;2023-06-22T03:48:01;48.18;40.93;65.17;;
49215;Laerm;45943;53.148;8.204;2023-06-22T03:50:27;47.54;40.83;63.73;;
49215;Laerm;45943;53.148;8.204;2023-06-22T03:52:53;48.84;40.73;63.27;;
49215;Laerm;45943;53.148;8.204;2023-06-22T03:55:19;50.01;41.13;65.23;;
49215;Laerm;45943;53.148;8.204;2023-06-22T03:57:46;45.19;41.31;59.02;;
49215;Laerm;45943;53.148;8.204;2023-06-22T04:00:12;47.97;40.63;65.14;;
49215;Laerm;45943;53.148;8.204;2023-06-22T04:02:38;47.96;41.05;63.92;;
49215;Laerm;45943;53.148;8.204;2023-06-22T04:05:05;62.68;40.83;72.77;;
49215;Laerm;45943;53.148;8.204;2023-06-22T04:07:31;44.38;41.31;54.31;;
49215;Laerm;45943;53.148;8.204;2023-06-22T04:09:57;47.55;40.73;62.25;;
49215;Laerm;45943;53.148;8.204;2023-06-22T04:12:23;49.46;40.73;65.91;;
49215;Laerm;45943;53.148;8.204;2023-06-22T04:14:49;49.32;41.31;68.11;;
49215;Laerm;45943;53.148;8.204;2023-06-22T04:17:15;51.68;41.31;67.54;;
49215;Laerm;45943;53.148;8.204;2023-06-22T04:19:41;47.92;39.94;65.76;;
49215;Laerm;45943;53.148;8.204;2023-06-22T04:22:07;47.28;40.06;61.09;;
49215;Laerm;45943;53.148;8.204;2023-06-22T04:24:33;54.59;39.41;72.22;;
49215;Laerm;45943;53.148;8.204;2023-06-22T04:26:59;51.14;39.55;64.84;;
49215;Laerm;45943;53.148;8.204;2023-06-22T04:29:26;48.44;40.41;68.06;;
49215;Laerm;45943;53.148;8.204;2023-06-22T04:31:54;48.32;40.18;67.30;;
49215;Laerm;45943;53.148;8.204;2023-06-22T04:34:21;50.16;40.68;70.09;;
49215;Laerm;45943;53.148;8.204;2023-06-22T04:36:47;49.90;40.63;70.09;;
49215;Laerm;45943;53.148;8.204;2023-06-22T04:39:14;45.20;40.30;62.37;;
49215;Laerm;45943;53.148;8.204;2023-06-22T04:41:41;55.99;41.40;71.03;;
49215;Laerm;45943;53.148;8.204;2023-06-22T04:44:13;49.47;40.83;63.73;;
49215;Laerm;45943;53.148;8.204;2023-06-22T04:46:40;51.78;41.03;75.28;;
49215;Laerm;45943;53.148;8.204;2023-06-22T04:49:07;48.71;40.63;64.23;;
49215;Laerm;45943;53.148;8.204;2023-06-22T04:51:42;53.64;40.63;67.79;;
49215;Laerm;45943;53.148;8.204;2023-06-22T04:54:09;52.21;40.73;67.17;;
49215;Laerm;45943;53.148;8.204;2023-06-22T04:56:35;49.94;40.83;63.39;;
49215;Laerm;45943;53.148;8.204;2023-06-22T04:59:02;51.39;40.52;63.66;;
49215;Laerm;45943;53.148;8.204;2023-06-22T05:01:29;50.06;40.83;64.66;;
49215;Laerm;45943;53.148;8.204;2023-06-22T05:03:57;49.16;40.28;64.13;;
49215;Laerm;45943;53.148;8.204;2023-06-22T05:06:27;48.11;41.58;61.13;;
49215;Laerm;45943;53.148;8.204;2023-06-22T05:08:57;54.19;41.66;67.74;;
49215;Laerm;45943;53.148;8.204;2023-06-22T05:11:26;52.80;41.40;65.56;;
49215;Laerm;45943;53.148;8.204;2023-06-22T05:13:52;60.99;41.90;71.35;;
49215;Laerm;45943;53.148;8.204;2023-06-22T05:16:20;51.79;40.73;75.78;;
49215;Laerm;45943;53.148;8.204;2023-06-22T05:18:55;50.09;40.73;64.31;;
49215;Laerm;45943;53.148;8.204;2023-06-22T05:21:23;53.45;41.58;65.78;;
49215;Laerm;45943;53.148;8.204;2023-06-22T05:23:50;56.34;42.76;75.26;;
49215;Laerm;45943;53.148;8.204;2023-06-22T05:26:17;58.59;52.65;70.85;;
49215;Laerm;45943;53.148;8.204;2023-06-22T05:28:44;57.79;52.30;74.58;;
49215;Laerm;45943;53.148;8.204;2023-06-22T05:31:15;56.53;52.49;66.58;;
49215;Laerm;45943;53.148;8.204;2023-06-22T05:33:42;57.43;53.21;71.01;;
49215;Laerm;45943;53.148;8.204;2023-06-22T05:36:08;58.00;52.33;78.29;;
49215;Laerm;45943;53.148;8.204;2023-06-22T05:38:36;57.57;52.67;68.05;;
49215;Laerm;45943;53.148;8.204;2023-06-22T05:41:02;59.48;51.86;71.82;;
49215;Laerm;45943;53.148;8.204;2023-06-22T05:43:28;56.50;52.27;65.57;;
49215;Laerm;45943;53.148;8.204;2023-06-22T05:45:54;58.04;52.03;78.91;;
49215;Laerm;45943;53.148;8.204;2023-06-22T05:48:21;58.12;45.03;68.73;;
49215;Laerm;45943;53.148;8.204;2023-06-22T05:50:47;53.80;42.28;68.21;;
49215;Laerm;45943;53.148;8.204;2023-06-22T05:53:13;51.06;41.22;63.72;;
49215;Laerm;45943;53.148;8.204;2023-06-22T05:55:39;56.43;42.49;74.85;;
49215;Laerm;45943;53.148;8.204;2023-06-22T05:58:05;51.98;40.59;63.20;;
49215;Laerm;45943;53.148;8.204;2023-06-22T06:00:31;54.11;40.83;66.83;;
49215;Laerm;45943;53.148;8.204;2023-06-22T06:02:57;54.80;42.42;69.71;;
49215;Laerm;45943;53.148;8.204;2023-06-22T06:05:33;52.31;40.30;65.20;;
49215;Laerm;45943;53.148;8.204;2023-06-22T06:08:00;56.50;42.21;73.21;;
49215;Laerm;45943;53.148;8.204;2023-06-22T06:10:26;53.67;41.13;67.15;;
49215;Laerm;45943;53.148;8.204;2023-06-22T06:12:53;54.19;41.22;75.45;;
49215;Laerm;45943;53.148;8.204;2023-06-22T06:15:19;52.21;40.73;67.57;;
49215;Laerm;45943;53.148;8.204;2023-06-22T06:17:49;52.38;39.68;74.19;;
49215;Laerm;45943;53.148;8.204;2023-06-22T06:20:18;55.80;40.83;69.92;;
49215;Laerm;45943;53.148;8.204;2023-06-22T06:22:44;49.88;40.63;65.36;;
49215;Laerm;45943;53.148;8.204;2023-06-22T06:25:10;50.89;40.18;69.37;;
49215;Laerm;45943;53.148;8.204;2023-06-22T06:27:42;53.18;41.14;67.29;;
49215;Laerm;45943;53.148;8.204;2023-06-22T06:30:14;57.80;40.06;81.17;;
49215;Laerm;45943;53.148;8.204;2023-06-22T06:32:41;55.58;41.74;75.05;;
49215;Laerm;45943;53.148;8.204;2023-06-22T06:35:08;53.86;41.31;65.57;;
49215;Laerm;45943;53.148;8.204;2023-06-22T06:37:39;52.13;42.69;79.01;;
49215;Laerm;45943;53.148;8.204;2023-06-22T06:40:10;55.24;41.31;77.71;;
49215;Laerm;45943;53.148;8.204;2023-06-22T06:42:41;55.36;41.66;71.34;;
49215;Laerm;45943;53.148;8.204;2023-06-22T06:45:14;61.73;42.42;92.29;;
49215;Laerm;45943;53.148;8.204;2023-06-22T06:47:41;66.02;42.13;91.14;;
49215;Laerm;45943;53.148;8.204;2023-06-22T06:50:07;56.04;42.69;79.73;;
49215;Laerm;45943;53.148;8.204;2023-06-22T06:52:33;56.27;41.58;79.10;;
49215;Laerm;45943;53.148;8.204;2023-06-22T06:55:00;55.12;41.58;67.39;;
49215;Laerm;45943;53.148;8.204;2023-06-22T06:57:26;53.42;40.18;74.45;;
49215;Laerm;45943;53.148;8.204;2023-06-22T06:59:56;53.56;40.18;65.26;;
49215;Laerm;45943;53.148;8.204;2023-06-22T07:02:23;54.00;40.93;67.11;;
49215;Laerm;45943;53.148;8.204;2023-06-22T07:04:49;50.55;40.52;62.23;;
49215;Laerm;45943;53.148;8.204;2023-06-22T07:07:17;51.03;40.41;65.67;;
49215;Laerm;45943;53.148;8.204;2023-06-22T07:09:43;53.53;39.55;68.97;;
49215;Laerm;45943;53.148;8.204;2023-06-22T07:12:09;53.20;40.30;68.36;;
49215;Laerm;45943;53.148;8.204;2023-06-22T07:14:35;54.87;40.41;74.24;;
49215;Laerm;45943;53.148;8.204;2023-06-22T07:17:01;53.85;40.30;71.29;;
49215;Laerm;45943;53.148;8.204;2023-06-22T07:19:27;58.94;40.83;74.81;;
49215;Laerm;45943;53.148;8.204;2023-06-22T07:21:54;56.55;43.01;69.01;;
49215;Laerm;45943;53.148;8.204;2023-06-22T07:24:21;52.92;42.76;67.45;;
49215;Laerm;45943;53.148;8.204;2023-06-22T07:26:50;52.36;42.95;69.75;;
49215;Laerm;45943;53.148;8.204;2023-06-22T07:29:17;53.55;42.42;67.38;;
49215;Laerm;45943;53.148;8.204;2023-06-22T07:31:44;53.66;42.76;66.81;;
49215;Laerm;45943;53.148;8.204;2023-06-22T07:34:10;58.83;42.82;72.47;;
49215;Laerm;45943;53.148;8.204;2023-06-22T07:36:37;52.50;43.31;68.93;;
49215;Laerm;45943;53.148;8.204;2023-06-22T07:39:03;56.11;43.13;73.05;;
49215;Laerm;45943;53.148;8.204;2023-06-22T07:41:30;57.50;42.06;75.74;;
49215;Laerm;45943;53.148;8.204;2023-06-22T07:43:56;55.78;40.73;70.57;;
49215;Laerm;45943;53.148;8.204;2023-06-22T07:46:23;60.13;42.28;71.60;;
49215;Laerm;45943;53.148;8.204;2023-06-22T07:48:49;54.99;43.25;69.76;;
49215;Laerm;45943;53.148;8.204;2023-06-22T07:51:15;60.90;44.59;72.74;;
49215;Laerm;45943;53.148;8.204;2023-06-22T07:53:42;59.26;43.07;74.17;;
49215;Laerm;45943;53.148;8.204;2023-06-22T07:56:11;55.93;42.48;70.04;;
49215;Laerm;45943;53.148;8.204;2023-06-22T07:58:38;58.54;51.83;77.17;;
49215;Laerm;45943;53.148;8.204;2023-06-22T08:01:04;57.30;50.51;71.61;;
49215;Laerm;45943;53.148;8.204;2023-06-22T08:03:30;56.96;50.69;68.73;;
49215;Laerm;45943;53.148;8.204;2023-06-22T08:05:56;56.51;50.91;70.24;;
49215;Laerm;45943;53.148;8.204;2023-06-22T08:08:22;57.43;51.27;71.88;;
49215;Laerm;45943;53.148;8.204;2023-06-22T08:10:48;58.87;51.40;65.53;;
49215;Laerm;45943;53.148;8.204;2023-06-22T08:13:14;58.89;50.94;72.58;;
49215;Laerm;45943;53.148;8.204;2023-06-22T08:15:40;57.58;51.05;72.09;;
49215;Laerm;45943;53.148;8.204;2023-06-22T08:18:06;54.36;50.75;59.78;;
49215;Laerm;45943;53.148;8.204;2023-06-22T08:20:32;55.47;50.72;62.25;;
49215;Laerm;45943;53.148;8.204;2023-06-22T08:22:58;57.88;51.24;71.78;;
49215;Laerm;45943;53.148;8.204;2023-06-22T08:25:31;57.55;50.95;78.29;;
49215;Laerm;45943;53.148;8.204;2023-06-22T08:27:56;57.45;50.60;80.08;;
49215;Laerm;45943;53.148;8.204;2023-06-22T08:30:23;59.74;50.83;85.09;;
49215;Laerm;45943;53.148;8.204;2023-06-22T08:32:49;58.73;51.50;71.67;;
49215;Laerm;45943;53.148;8.204;2023-06-22T08:35:15;56.45;51.09;70.44;;
49215;Laerm;45943;53.148;8.204;2023-06-22T08:37:41;55.53;50.88;63.28;;
49215;Laerm;45943;53.148;8.204;2023-06-22T08:40:09;55.91;51.38;67.95;;
49215;Laerm;45943;53.148;8.204;2023-06-22T08:42:36;58.12;51.39;70.70;;
49215;Laerm;45943;53.148;8.204;2023-06-22T08:45:02;57.41;43.07;72.07;;
49215;Laerm;45943;53.148;8.204;2023-06-22T08:47:29;55.87;41.49;75.52;;
49215;Laerm;45943;53.148;8.204;2023-06-22T08:50:02;54.80;43.07;64.30;;
49215;Laerm;45943;53.148;8.204;2023-06-22T08:52:31;54.20;43.64;68.80;;
49215;Laerm;45943;53.148;8.204;2023-06-22T08:54:57;56.35;43.69;71.08;;
49215;Laerm;45943;53.148;8.204;2023-06-22T08:57:27;56.80;41.49;64.76;;
49215;Laerm;45943;53.148;8.204;2023-06-22T08:59:53;58.78;44.23;67.94;;
49215;Laerm;45943;53.148;8.204;2023-06-22T09:02:19;59.98;45.77;71.36;;
49215;Laerm;45943;53.148;8.204;2023-06-22T09:04:46;52.27;41.31;64.27;;
49215;Laerm;45943;53.148;8.204;2023-06-22T09:07:12;52.42;42.69;73.29;;
49215;Laerm;45943;53.148;8.204;2023-06-22T09:09:38;57.86;44.14;73.89;;
49215;Laerm;45943;53.148;8.204;2023-06-22T09:12:04;53.53;42.28;69.33;;
49215;Laerm;45943;53.148;8.204;2023-06-22T09:14:30;54.31;41.90;66.97;;
49215;Laerm;45943;53.148;8.204;2023-06-22T09:16:56;58.04;41.82;75.32;;
49215;Laerm;45943;53.148;8.204;2023-06-22T09:19:22;60.28;46.51;76.62;;
49215;Laerm;45943;53.148;8.204;2023-06-22T09:21:48;58.43;43.19;73.94;;
49215;Laerm;45943;53.148;8.204;2023-06-22T09:24:14;55.18;42.42;77.54;;
49215;Laerm;45943;53.148;8.204;2023-06-22T09:26:40;57.54;43.69;73.61;;
49215;Laerm;45943;53.148;8.204;2023-06-22T09:29:06;56.60;42.06;76.23;;
49215;Laerm;45943;53.148;8.204;2023-06-22T09:31:32;60.47;43.79;77.68;;
49215;Laerm;45943;53.148;8.204;2023-06-22T09:33:58;61.19;43.31;77.12;;
49215;Laerm;45943;53.148;8.204;2023-06-22T09:39:53;57.69;44.46;76.67;;
49215;Laerm;45943;53.148;8.204;2023-06-22T09:42:19;53.60;42.35;80.00;;
49215;Laerm;45943;53.148;8.204;2023-06-22T09:44:44;52.25;42.42;69.47;;
49215;Laerm;45943;53.148;8.204;2023-06-22T09:47:10;60.66;42.82;76.18;;
49215;Laerm;45943;53.148;8.204;2023-06-22T09:49:36;59.01;42.95;68.30;;
49215;Laerm;45943;53.148;8.204;2023-06-22T09:52:03;62.21;44.23;71.06;;
49215;Laerm;45943;53.148;8.204;2023-06-22T09:54:29;64.18;53.94;74.44;;
49215;Laerm;45943;53.148;8.204;2023-06-22T09:56:55;61.35;42.49;76.04;;
49215;Laerm;45943;53.148;8.204;2023-06-22T09:59:21;60.52;43.25;80.64;;
49215;Laerm;45943;53.148;8.204;2023-06-22T10:01:47;59.18;42.13;75.47;;
49215;Laerm;45943;53.148;8.204;2023-06-22T10:04:13;59.58;42.76;77.74;;
49215;Laerm;45943;53.148;8.204;2023-06-22T10:06:39;59.46;42.28;71.90;;
49215;Laerm;45943;53.148;8.204;2023-06-22T10:09:07;67.20;43.99;77.44;;
49215;Laerm;45943;53.148;8.204;2023-06-22T10:11:33;62.79;42.49;77.60;;
49215;Laerm;45943;53.148;8.204;2023-06-22T10:14:01;60.63;43.07;77.32;;
49215;Laerm;45943;53.148;8.204;2023-06-22T10:16:31;64.23;43.58;78.50;;
49215;Laerm;45943;53.148;8.204;2023-06-22T10:18:57;61.51;42.21;74.18;;
49215;Laerm;45943;53.148;8.204;2023-06-22T10:21:23;64.95;41.31;78.73;;
49215;Laerm;45943;53.148;8.204;2023-06-22T10:23:50;63.18;42.95;75.54;;
49215;Laerm;45943;53.148;8.204;2023-06-22T10:26:16;66.09;42.21;89.32;;
49215;Laerm;45943;53.148;8.204;2023-06-22T10:28:42;66.15;42.89;80.52;;
49215;Laerm;45943;53.148;8.204;2023-06-22T10:31:08;60.50;42.28;73.27;;
49215;Laerm;45943;53.148;8.204;2023-06-22T10:33:34;60.14;43.36;73.47;;
49215;Laerm;45943;53.148;8.204;2023-06-22T10:36:00;62.60;42.82;79.57;;
49215;Laerm;45943;53.148;8.204;2023-06-22T10:38:26;55.63;42.06;70.79;;
49215;Laerm;45943;53.148;8.204;2023-06-22T10:40:52;58.64;43.31;72.55;;
49215;Laerm;45943;53.148;8.204;2023-06-22T10:43:18;60.65;42.13;74.25;;
49215;Laerm;45943;53.148;8.204;2023-06-22T10:45:44;58.06;42.84;72.82;;
49215;Laerm;45943;53.148;8.204;2023-06-22T10:48:10;60.48;41.31;76.46;;
49215;Laerm;45943;53.148;8.204;2023-06-22T10:50:36;57.99;43.25;81.71;;
49215;Laerm;45943;53.148;8.204;2023-06-22T10:53:02;61.95;43.07;71.28;;
49215;Laerm;45943;53.148;8.204;2023-06-22T10:55:28;55.39;43.25;67.43;;
49215;Laerm;45943;53.148;8.204;2023-06-22T10:57:54;61.85;42.95;76.82;;
49215;Laerm;45943;53.148;8.204;2023-06-22T11:00:20;65.93;41.82;77.95;;
49215;Laerm;45943;53.148;8.204;2023-06-22T11:02:47;65.67;42.35;89.07;;
49215;Laerm;45943;53.148;8.204;2023-06-22T11:05:13;61.08;41.58;83.66;;
49215;Laerm;45943;53.148;8.204;2023-06-22T11:07:43;58.54;43.01;82.60;;
49215;Laerm;45943;53.148;8.204;2023-06-22T11:10:10;62.88;41.74;86.95;;
49215;Laerm;45943;53.148;8.204;2023-06-22T11:12:36;58.72;42.95;76.83;;
49215;Laerm;45943;53.148;8.204;2023-06-22T11:15:02;60.72;41.66;75.94;;
49215;Laerm;45943;53.148;8.204;2023-06-22T11:17:29;59.87;50.77;83.30;;
49215;Laerm;45943;53.148;8.204;2023-06-22T11:19:55;61.10;50.70;80.68;;
49215;Laerm;45943;53.148;8.204;2023-06-22T11:22:21;61.29;50.82;81.63;;
49215;Laerm;45943;53.148;8.204;2023-06-22T11:24:47;56.80;50.81;72.16;;
49215;Laerm;45943;53.148;8.204;2023-06-22T11:27:13;60.08;51.00;84.93;;
49215;Laerm;45943;53.148;8.204;2023-06-22T11:29:39;67.92;51.03;92.30;;
49215;Laerm;45943;53.148;8.204;2023-06-22T11:32:06;61.60;51.36;88.16;;
49215;Laerm;45943;53.148;8.204;2023-06-22T11:34:32;64.55;51.29;91.82;;
49215;Laerm;45943;53.148;8.204;2023-06-22T11:36:58;63.88;51.07;93.00;;
49215;Laerm;45943;53.148;8.204;2023-06-22T11:39:24;59.77;51.46;74.44;;
49215;Laerm;45943;53.148;8.204;2023-06-22T11:41:50;61.56;52.07;78.85;;
49215;Laerm;45943;53.148;8.204;2023-06-22T11:44:16;55.41;50.73;68.79;;
49215;Laerm;45943;53.148;8.204;2023-06-22T11:46:42;60.70;51.18;76.82;;
49215;Laerm;45943;53.148;8.204;2023-06-22T11:49:08;59.83;50.16;86.26;;
49215;Laerm;45943;53.148;8.204;2023-06-22T11:51:34;66.36;50.57;91.68;;
49215;Laerm;45943;53.148;8.204;2023-06-22T11:54:00;62.02;42.35;79.19;;
49215;Laerm;45943;53.148;8.204;2023-06-22T11:56:27;53.49;41.82;69.90;;
49215;Laerm;45943;53.148;8.204;2023-06-22T11:58:53;68.50;43.79;86.98;;
49215;Laerm;45943;53.148;8.204;2023-06-22T12:01:20;60.80;43.25;85.44;;
49215;Laerm;45943;53.148;8.204;2023-06-22T12:03:46;54.81;42.82;71.18;;
49215;Laerm;45943;53.148;8.204;2023-06-22T12:06:14;67.51;42.84;86.91;;
49215;Laerm;45943;53.148;8.204;2023-06-22T12:08:40;69.18;51.62;83.50;;
49215;Laerm;45943;53.148;8.204;2023-06-22T12:11:05;63.05;51.44;73.98;;
49215;Laerm;45943;53.148;8.204;2023-06-22T12:13:31;75.14;52.09;95.26;;
49215;Laerm;45943;53.148;8.204;2023-06-22T12:15:57;74.33;54.87;81.37;;
49215;Laerm;45943;53.148;8.204;2023-06-22T12:18:32;75.11;53.85;80.00;;
49215;Laerm;45943;53.148;8.204;2023-06-22T12:20:58;76.59;52.94;82.89;;
49215;Laerm;45943;53.148;8.204;2023-06-22T12:23:24;75.57;51.51;81.72;;
49215;Laerm;45943;53.148;8.204;2023-06-22T12:25:50;65.26;51.59;78.76;;
49215;Laerm;45943;53.148;8.204;2023-06-22T12:28:16;56.27;51.19;75.59;;
49215;Laerm;45943;53.148;8.204;2023-06-22T12:30:42;56.04;51.47;69.77;;
49215;Laerm;45943;53.148;8.204;2023-06-22T12:33:08;57.93;50.98;69.10;;
49215;Laerm;45943;53.148;8.204;2023-06-22T12:35:34;59.17;51.07;72.80;;
49215;Laerm;45943;53.148;8.204;2023-06-22T12:38:03;56.45;51.21;65.88;;
49215;Laerm;45943;53.148;8.204;2023-06-22T12:40:32;58.36;51.14;72.73;;
49215;Laerm;45943;53.148;8.204;2023-06-22T12:42:59;56.96;52.07;74.69;;
49215;Laerm;45943;53.148;8.204;2023-06-22T12:45:25;57.06;51.84;69.04;;
49215;Laerm;45943;53.148;8.204;2023-06-22T12:47:54;57.96;50.92;70.03;;
49215;Laerm;45943;53.148;8.204;2023-06-22T12:50:20;57.40;51.27;69.04;;
49215;Laerm;45943;53.148;8.204;2023-06-22T12:52:46;67.16;51.56;78.24;;
49215;Laerm;45943;53.148;8.204;2023-06-22T12:55:12;63.23;51.58;74.29;;
49215;Laerm;45943;53.148;8.204;2023-06-22T12:57:38;62.40;51.25;73.12;;
49215;Laerm;45943;53.148;8.204;2023-06-22T13:00:05;62.22;51.46;76.43;;
49215;Laerm;45943;53.148;8.204;2023-06-22T13:02:33;59.40;51.16;72.82;;
49215;Laerm;45943;53.148;8.204;2023-06-22T13:04:59;62.03;50.72;78.39;;
49215;Laerm;45943;53.148;8.204;2023-06-22T13:07:51;60.32;51.23;84.65;;
49215;Laerm;45943;53.148;8.204;2023-06-22T13:10:28;60.37;45.07;88.10;;
49215;Laerm;45943;53.148;8.204;2023-06-22T13:12:57;57.22;42.56;66.60;;
49215;Laerm;45943;53.148;8.204;2023-06-22T13:15:30;56.65;43.69;69.15;;
49215;Laerm;45943;53.148;8.204;2023-06-22T13:17:56;56.84;43.01;75.18;;
49215;Laerm;45943;53.148;8.204;2023-06-22T13:20:22;53.82;42.69;76.43;;
49215;Laerm;45943;53.148;8.204;2023-06-22T13:22:48;60.94;42.21;87.44;;
49215;Laerm;45943;53.148;8.204;2023-06-22T13:25:14;61.18;42.49;87.76;;
49215;Laerm;45943;53.148;8.204;2023-06-22T13:27:44;58.26;43.31;86.16;;
49215;Laerm;45943;53.148;8.204;2023-06-22T13:30:11;58.49;43.13;82.94;;
49215;Laerm;45943;53.148;8.204;2023-06-22T13:32:37;61.40;43.53;86.56;;
49215;Laerm;45943;53.148;8.204;2023-06-22T13:35:03;56.57;43.58;69.43;;
49215;Laerm;45943;53.148;8.204;2023-06-22T13:37:29;62.65;53.73;87.93;;
49215;Laerm;45943;53.148;8.204;2023-06-22T13:39:55;63.35;53.35;76.28;;
49215;Laerm;45943;53.148;8.204;2023-06-22T13:42:21;60.05;49.70;76.47;;
49215;Laerm;45943;53.148;8.204;2023-06-22T13:44:47;56.49;43.31;69.43;;
49215;Laerm;45943;53.148;8.204;2023-06-22T13:47:13;53.57;43.84;72.03;;
49215;Laerm;45943;53.148;8.204;2023-06-22T13:49:39;59.52;43.39;74.16;;
49215;Laerm;45943;53.148;8.204;2023-06-22T13:52:06;53.59;43.58;75.35;;
49215;Laerm;45943;53.148;8.204;2023-06-22T13:54:36;56.20;43.01;72.99;;